Dunlap Lake, Illinois
Current Conditions -  °F | °C
As of 8:12 AM on Sunday 25 Jan 2015 (Local Time) from KALN Reporting Station
Overcast Overcast  
Wind Chill:   Ceiling: 2100
Heat Index:   Visibility: 10mi
Dew Point:   Wind: 7mph
Humidity: 93%   Direction: 240°WSW
Pressure: 29.58"   Gusts: NA
Location:  38.8031°N, 89.9742°W
Report Text: KALN 251412Z 24006KT 10SM SCT014 BKN021 OVC043 06/05 A2958
Loading
Personal Weather Stations






























Interactive Weather Map New forecast layout! Learn more

10-Day Weather Forecast

Advertisements
Track Severe Weather on mobile